sensor_id;sensor_type;location;lat;lon;timestamp;pressure;altitude;pressure_sealevel;temperature;humidity
74230;BME280;62589;12.568;99.958;2023-08-24T00:00:20;100642.09;;;33.22;52.89
74230;BME280;62589;12.568;99.958;2023-08-24T00:02:47;100642.91;;;33.26;52.96
74230;BME280;62589;12.568;99.958;2023-08-24T00:05:13;100648.47;;;33.23;52.87
74230;BME280;62589;12.568;99.958;2023-08-24T00:07:39;100644.09;;;33.25;53.25
74230;BME280;62589;12.568;99.958;2023-08-24T00:10:06;100656.03;;;33.26;52.88
74230;BME280;62589;12.568;99.958;2023-08-24T00:12:33;100658.00;;;33.25;52.91
74230;BME280;62589;12.568;99.958;2023-08-24T00:15:01;100663.97;;;33.24;53.49
74230;BME280;62589;12.568;99.958;2023-08-24T00:17:28;100673.91;;;33.25;53.71
74230;BME280;62589;12.568;99.958;2023-08-24T00:19:55;100671.50;;;33.23;53.14
74230;BME280;62589;12.568;99.958;2023-08-24T00:22:21;100676.28;;;33.23;53.67
74230;BME280;62589;12.568;99.958;2023-08-24T00:24:48;100680.25;;;33.22;53.41
74230;BME280;62589;12.568;99.958;2023-08-24T00:27:14;100685.41;;;33.20;53.87
74230;BME280;62589;12.568;99.958;2023-08-24T00:29:40;100691.41;;;33.25;53.49
74230;BME280;62589;12.568;99.958;2023-08-24T00:32:07;100690.59;;;33.25;53.02
74230;BME280;62589;12.568;99.958;2023-08-24T00:34:34;100685.81;;;33.22;53.04
74230;BME280;62589;12.568;99.958;2023-08-24T00:37:00;100691.41;;;33.25;53.31
74230;BME280;62589;12.568;99.958;2023-08-24T00:39:27;100691.78;;;33.24;53.36
74230;BME280;62589;12.568;99.958;2023-08-24T00:41:53;100688.63;;;33.25;53.12
74230;BME280;62589;12.568;99.958;2023-08-24T00:44:20;100696.16;;;33.25;53.42
74230;BME280;62589;12.568;99.958;2023-08-24T00:46:46;100700.53;;;33.26;52.95
74230;BME280;62589;12.568;99.958;2023-08-24T00:49:15;100702.94;;;33.27;53.19
74230;BME280;62589;12.568;99.958;2023-08-24T00:51:42;100701.34;;;33.26;52.80
74230;BME280;62589;12.568;99.958;2023-08-24T00:54:08;100704.13;;;33.26;53.24
74230;BME280;62589;12.568;99.958;2023-08-24T00:56:35;100703.72;;;33.28;52.91
74230;BME280;62589;12.568;99.958;2023-08-24T00:59:02;100706.13;;;33.29;53.25
74230;BME280;62589;12.568;99.958;2023-08-24T01:01:28;100710.91;;;33.32;53.12
74230;BME280;62589;12.568;99.958;2023-08-24T01:03:55;100722.84;;;33.33;53.69
74230;BME280;62589;12.568;99.958;2023-08-24T01:06:21;100726.41;;;33.33;53.24
74230;BME280;62589;12.568;99.958;2023-08-24T01:08:48;100732.78;;;33.34;53.61
74230;BME280;62589;12.568;99.958;2023-08-24T01:11:42;100735.56;;;33.37;53.17
74230;BME280;62589;12.568;99.958;2023-08-24T01:14:30;100745.50;;;33.35;53.51
74230;BME280;62589;12.568;99.958;2023-08-24T01:17:01;100744.31;;;33.32;53.45
74230;BME280;62589;12.568;99.958;2023-08-24T01:19:42;100743.94;;;33.37;54.05
74230;BME280;62589;12.568;99.958;2023-08-24T01:25:15;100742.75;;;33.42;54.59
74230;BME280;62589;12.568;99.958;2023-08-24T01:27:43;100749.53;;;33.44;54.16
74230;BME280;62589;12.568;99.958;2023-08-24T01:30:10;100744.75;;;33.41;53.42
74230;BME280;62589;12.568;99.958;2023-08-24T01:32:37;100741.56;;;33.43;54.30
74230;BME280;62589;12.568;99.958;2023-08-24T01:35:09;100754.28;;;33.44;54.54
74230;BME280;62589;12.568;99.958;2023-08-24T01:37:36;100748.34;;;33.45;54.26
74230;BME280;62589;12.568;99.958;2023-08-24T01:40:17;100743.94;;;33.48;54.82
74230;BME280;62589;12.568;99.958;2023-08-24T01:42:58;100756.31;;;33.54;55.51
74230;BME280;62589;12.568;99.958;2023-08-24T01:45:29;100757.50;;;33.53;54.61
74230;BME280;62589;12.568;99.958;2023-08-24T01:47:56;100747.16;;;33.54;54.46
74230;BME280;62589;12.568;99.958;2023-08-24T01:50:23;100746.75;;;33.55;54.82
74230;BME280;62589;12.568;99.958;2023-08-24T01:52:50;100750.75;;;33.61;55.03
74230;BME280;62589;12.568;99.958;2023-08-24T01:55:20;100756.34;;;33.61;55.63
74230;BME280;62589;12.568;99.958;2023-08-24T01:57:48;100765.88;;;33.64;54.88
74230;BME280;62589;12.568;99.958;2023-08-24T02:00:15;100766.28;;;33.66;54.98
74230;BME280;62589;12.568;99.958;2023-08-24T02:02:45;100771.84;;;33.69;54.78
74230;BME280;62589;12.568;99.958;2023-08-24T02:05:11;100771.47;;;33.74;55.24
74230;BME280;62589;12.568;99.958;2023-08-24T02:07:39;100771.88;;;33.76;55.00
74230;BME280;62589;12.568;99.958;2023-08-24T02:10:06;100776.69;;;33.79;54.91
74230;BME280;62589;12.568;99.958;2023-08-24T02:12:33;100774.31;;;33.82;55.65
74230;BME280;62589;12.568;99.958;2023-08-24T02:14:59;100769.94;;;33.84;55.32
74230;BME280;62589;12.568;99.958;2023-08-24T02:17:29;100768.34;;;33.90;55.33
74230;BME280;62589;12.568;99.958;2023-08-24T02:19:55;100766.78;;;34.00;55.63
74230;BME280;62589;12.568;99.958;2023-08-24T02:22:22;100779.13;;;34.06;56.14
74230;BME280;62589;12.568;99.958;2023-08-24T02:24:48;100777.50;;;34.12;55.88
74230;BME280;62589;12.568;99.958;2023-08-24T02:27:15;100778.72;;;34.18;55.85
74230;BME280;62589;12.568;99.958;2023-08-24T02:29:41;100777.53;;;34.26;54.78
74230;BME280;62589;12.568;99.958;2023-08-24T02:32:07;100782.31;;;34.22;53.09
74230;BME280;62589;12.568;99.958;2023-08-24T02:34:34;100779.56;;;34.29;53.00
74230;BME280;62589;12.568;99.958;2023-08-24T02:37:00;100770.78;;;34.34;53.93
74230;BME280;62589;12.568;99.958;2023-08-24T02:39:27;100783.13;;;34.40;53.46
74230;BME280;62589;12.568;99.958;2023-08-24T02:41:53;100788.31;;;34.45;53.65
74230;BME280;62589;12.568;99.958;2023-08-24T02:44:19;100766.41;;;34.47;52.89
74230;BME280;62589;12.568;99.958;2023-08-24T02:46:48;100775.19;;;34.46;53.55
74230;BME280;62589;12.568;99.958;2023-08-24T02:49:15;100772.38;;;34.53;53.26
74230;BME280;62589;12.568;99.958;2023-08-24T02:51:41;100778.34;;;34.55;52.84
74230;BME280;62589;12.568;99.958;2023-08-24T02:54:08;100778.34;;;34.55;52.90
74230;BME280;62589;12.568;99.958;2023-08-24T02:56:34;100777.94;;;34.53;52.55
74230;BME280;62589;12.568;99.958;2023-08-24T02:59:01;100781.53;;;34.54;52.29
74230;BME280;62589;12.568;99.958;2023-08-24T03:01:27;100777.94;;;34.53;51.82
74230;BME280;62589;12.568;99.958;2023-08-24T03:03:54;100778.34;;;34.52;52.11
74230;BME280;62589;12.568;99.958;2023-08-24T03:06:20;100776.34;;;34.56;53.05
74230;BME280;62589;12.568;99.958;2023-08-24T03:08:47;100773.16;;;34.57;52.57
74230;BME280;62589;12.568;99.958;2023-08-24T03:11:13;100775.56;;;34.59;52.88
74230;BME280;62589;12.568;99.958;2023-08-24T03:13:39;100777.53;;;34.62;52.78
74230;BME280;62589;12.568;99.958;2023-08-24T03:16:07;100769.19;;;34.62;52.91
74230;BME280;62589;12.568;99.958;2023-08-24T03:18:33;100765.19;;;34.66;53.00
74230;BME280;62589;12.568;99.958;2023-08-24T03:21:00;100769.97;;;34.69;53.14
74230;BME280;62589;12.568;99.958;2023-08-24T03:23:27;100767.59;;;34.68;52.12
74230;BME280;62589;12.568;99.958;2023-08-24T03:25:54;100765.19;;;34.70;51.89
74230;BME280;62589;12.568;99.958;2023-08-24T03:28:21;100765.19;;;34.70;52.03
74230;BME280;62589;12.568;99.958;2023-08-24T03:30:50;100766.78;;;34.71;52.18
74230;BME280;62589;12.568;99.958;2023-08-24T03:33:17;100764.38;;;34.73;52.63
74230;BME280;62589;12.568;99.958;2023-08-24T03:35:45;100762.75;;;34.75;52.97
74230;BME280;62589;12.568;99.958;2023-08-24T03:38:12;100757.19;;;34.75;53.31
74230;BME280;62589;12.568;99.958;2023-08-24T03:40:38;100759.56;;;34.77;52.54
74230;BME280;62589;12.568;99.958;2023-08-24T03:43:05;100758.41;;;34.78;52.70
74230;BME280;62589;12.568;99.958;2023-08-24T03:45:31;100748.41;;;34.77;51.87
74230;BME280;62589;12.568;99.958;2023-08-24T03:47:58;100744.47;;;34.78;51.72
74230;BME280;62589;12.568;99.958;2023-08-24T03:50:24;100746.06;;;34.79;52.01
74230;BME280;62589;12.568;99.958;2023-08-24T03:52:52;100743.28;;;34.79;52.17
74230;BME280;62589;12.568;99.958;2023-08-24T03:55:20;100746.44;;;34.77;51.75
74230;BME280;62589;12.568;99.958;2023-08-24T03:57:47;100741.69;;;34.78;51.87
74230;BME280;62589;12.568;99.958;2023-08-24T04:00:14;100729.31;;;34.79;51.71
74230;BME280;62589;12.568;99.958;2023-08-24T04:02:44;100740.06;;;34.77;51.99
74230;BME280;62589;12.568;99.958;2023-08-24T04:05:10;100728.91;;;34.77;52.29
74230;BME280;62589;12.568;99.958;2023-08-24T04:07:37;100725.75;;;34.78;52.45
74230;BME280;62589;12.568;99.958;2023-08-24T04:10:06;100718.53;;;34.77;52.29
74230;BME280;62589;12.568;99.958;2023-08-24T04:12:33;100712.97;;;34.81;52.57
74230;BME280;62589;12.568;99.958;2023-08-24T04:14:59;100703.41;;;34.82;53.09
74230;BME280;62589;12.568;99.958;2023-08-24T04:17:26;100702.22;;;34.83;52.93
74230;BME280;62589;12.568;99.958;2023-08-24T04:19:52;100697.44;;;34.87;53.51
74230;BME280;62589;12.568;99.958;2023-08-24T04:22:19;100687.47;;;34.90;53.18
74230;BME280;62589;12.568;99.958;2023-08-24T04:24:45;100700.97;;;34.95;53.53
74230;BME280;62589;12.568;99.958;2023-08-24T04:27:11;100693.78;;;34.97;53.73
74230;BME280;62589;12.568;99.958;2023-08-24T04:29:38;100679.44;;;34.99;52.93
74230;BME280;62589;12.568;99.958;2023-08-24T04:32:05;100679.84;;;35.01;53.15
74230;BME280;62589;12.568;99.958;2023-08-24T04:34:32;100666.28;;;35.03;53.19
74230;BME280;62589;12.568;99.958;2023-08-24T04:36:58;100671.44;;;35.08;52.63
74230;BME280;62589;12.568;99.958;2023-08-24T04:39:25;100666.66;;;35.08;52.24
74230;BME280;62589;12.568;99.958;2023-08-24T04:41:51;100660.25;;;35.11;52.50
74230;BME280;62589;12.568;99.958;2023-08-24T04:44:17;100643.09;;;35.13;52.19
74230;BME280;62589;12.568;99.958;2023-08-24T04:46:44;100635.50;;;35.13;52.23
74230;BME280;62589;12.568;99.958;2023-08-24T04:49:11;100645.88;;;35.13;52.17
74230;BME280;62589;12.568;99.958;2023-08-24T04:51:37;100645.84;;;35.20;51.94
74230;BME280;62589;12.568;99.958;2023-08-24T04:54:03;100646.63;;;35.24;52.05
74230;BME280;62589;12.568;99.958;2023-08-24T04:56:30;100637.06;;;35.25;52.75
74230;BME280;62589;12.568;99.958;2023-08-24T04:58:57;100631.47;;;35.29;52.60
74230;BME280;62589;12.568;99.958;2023-08-24T05:01:26;100627.09;;;35.31;51.98
74230;BME280;62589;12.568;99.958;2023-08-24T05:03:54;100626.25;;;35.34;51.54
74230;BME280;62589;12.568;99.958;2023-08-24T05:06:21;100623.44;;;35.38;51.58
74230;BME280;62589;12.568;99.958;2023-08-24T05:08:47;100610.66;;;35.40;51.22
74230;BME280;62589;12.568;99.958;2023-08-24T05:11:16;100611.84;;;35.43;50.96
74230;BME280;62589;12.568;99.958;2023-08-24T05:13:43;100605.03;;;35.47;51.25
74230;BME280;62589;12.568;99.958;2023-08-24T05:16:11;100598.63;;;35.51;51.35
74230;BME280;62589;12.568;99.958;2023-08-24T05:18:38;100600.16;;;35.55;51.55
74230;BME280;62589;12.568;99.958;2023-08-24T05:21:05;100597.75;;;35.57;51.60
74230;BME280;62589;12.568;99.958;2023-08-24T05:23:32;100592.94;;;35.61;51.98
74230;BME280;62589;12.568;99.958;2023-08-24T05:26:00;100589.72;;;35.66;51.75
74230;BME280;62589;12.568;99.958;2023-08-24T05:28:27;100584.50;;;35.68;51.84
74230;BME280;62589;12.568;99.958;2023-08-24T05:30:54;100580.47;;;35.73;51.78
74230;BME280;62589;12.568;99.958;2023-08-24T05:33:22;100575.66;;;35.77;51.75
74230;BME280;62589;12.568;99.958;2023-08-24T05:35:49;100568.84;;;35.81;52.28
74230;BME280;62589;12.568;99.958;2023-08-24T05:38:16;100556.84;;;35.85;52.20
74230;BME280;62589;12.568;99.958;2023-08-24T05:40:46;100557.22;;;35.87;52.92
74230;BME280;62589;12.568;99.958;2023-08-24T05:43:12;100552.41;;;35.91;50.97
74230;BME280;62589;12.568;99.958;2023-08-24T05:45:39;100546.41;;;35.92;50.06
74230;BME280;62589;12.568;99.958;2023-08-24T05:48:07;100542.34;;;35.97;49.88
74230;BME280;62589;12.568;99.958;2023-08-24T05:50:33;100527.16;;;35.98;49.71
74230;BME280;62589;12.568;99.958;2023-08-24T05:53:00;100531.09;;;36.04;49.43
74230;BME280;62589;12.568;99.958;2023-08-24T05:55:26;100527.09;;;36.05;49.62
74230;BME280;62589;12.568;99.958;2023-08-24T05:57:53;100529.47;;;36.06;49.63
74230;BME280;62589;12.568;99.958;2023-08-24T06:00:19;100532.22;;;36.10;48.49
74230;BME280;62589;12.568;99.958;2023-08-24T06:02:48;100521.41;;;36.15;48.51
74230;BME280;62589;12.568;99.958;2023-08-24T06:05:14;100523.75;;;36.17;49.85
74230;BME280;62589;12.568;99.958;2023-08-24T06:07:43;100518.53;;;36.19;49.62
74230;BME280;62589;12.568;99.958;2023-08-24T06:10:11;100509.34;;;36.19;49.24
74230;BME280;62589;12.568;99.958;2023-08-24T06:12:38;100518.13;;;36.21;48.83
74230;BME280;62589;12.568;99.958;2023-08-24T06:15:05;100506.94;;;36.21;49.13
74230;BME280;62589;12.568;99.958;2023-08-24T06:17:35;100514.13;;;36.22;48.91
74230;BME280;62589;12.568;99.958;2023-08-24T06:20:03;100505.31;;;36.23;49.48
74230;BME280;62589;12.568;99.958;2023-08-24T06:22:30;100493.00;;;36.17;48.40
74230;BME280;62589;12.568;99.958;2023-08-24T06:24:56;100494.59;;;36.18;48.64
74230;BME280;62589;12.568;99.958;2023-08-24T06:27:26;100489.00;;;36.18;48.80
74230;BME280;62589;12.568;99.958;2023-08-24T06:29:52;100487.78;;;36.19;48.78
74230;BME280;62589;12.568;99.958;2023-08-24T06:32:19;100476.59;;;36.19;48.90
74230;BME280;62589;12.568;99.958;2023-08-24T06:34:45;100465.84;;;36.17;49.03
74230;BME280;62589;12.568;99.958;2023-08-24T06:37:12;100461.84;;;36.19;48.99
74230;BME280;62589;12.568;99.958;2023-08-24T06:39:38;100460.22;;;36.21;49.14
74230;BME280;62589;12.568;99.958;2023-08-24T06:42:05;100456.25;;;36.19;48.89
74230;BME280;62589;12.568;99.958;2023-08-24T06:44:31;100451.03;;;36.21;48.99
74230;BME280;62589;12.568;99.958;2023-08-24T06:46:58;100447.41;;;36.24;48.84
74230;BME280;62589;12.568;99.958;2023-08-24T06:49:24;100446.25;;;36.21;48.60
74230;BME280;62589;12.568;99.958;2023-08-24T06:51:51;100449.03;;;36.21;48.27
74230;BME280;62589;12.568;99.958;2023-08-24T06:54:18;100441.84;;;36.20;47.95
74230;BME280;62589;12.568;99.958;2023-08-24T06:56:44;100446.25;;;36.21;47.88
74230;BME280;62589;12.568;99.958;2023-08-24T06:59:10;100434.31;;;36.17;48.28
74230;BME280;62589;12.568;99.958;2023-08-24T07:01:39;100440.34;;;36.15;49.43
74230;BME280;62589;12.568;99.958;2023-08-24T07:04:06;100433.59;;;36.13;50.33
74230;BME280;62589;12.568;99.958;2023-08-24T07:06:36;100430.84;;;36.09;51.74
74230;BME280;62589;12.568;99.958;2023-08-24T07:09:03;100435.72;;;36.02;52.91
74230;BME280;62589;12.568;99.958;2023-08-24T07:11:32;100434.66;;;35.92;53.25
74230;BME280;62589;12.568;99.958;2023-08-24T07:13:59;100430.72;;;35.86;53.54
74230;BME280;62589;12.568;99.958;2023-08-24T07:16:25;100417.25;;;35.77;53.72
74230;BME280;62589;12.568;99.958;2023-08-24T07:18:52;100410.50;;;35.75;54.93
74230;BME280;62589;12.568;99.958;2023-08-24T07:21:18;100410.09;;;35.73;55.46
74230;BME280;62589;12.568;99.958;2023-08-24T07:23:44;100398.16;;;35.72;56.25
74230;BME280;62589;12.568;99.958;2023-08-24T07:26:12;100392.56;;;35.72;57.34
74230;BME280;62589;12.568;99.958;2023-08-24T07:28:38;100392.09;;;35.77;58.12
74230;BME280;62589;12.568;99.958;2023-08-24T07:31:09;100389.31;;;35.77;57.92
74230;BME280;62589;12.568;99.958;2023-08-24T07:33:39;100382.09;;;35.80;57.96
74230;BME280;62589;12.568;99.958;2023-08-24T07:36:06;100386.06;;;35.83;57.28
74230;BME280;62589;12.568;99.958;2023-08-24T07:38:32;100384.84;;;35.84;56.80
74230;BME280;62589;12.568;99.958;2023-08-24T07:40:59;100419.22;;;35.80;55.51
74230;BME280;62589;12.568;99.958;2023-08-24T07:43:25;100408.53;;;35.72;54.25
74230;BME280;62589;12.568;99.958;2023-08-24T07:45:52;100404.63;;;35.62;54.70
74230;BME280;62589;12.568;99.958;2023-08-24T07:48:18;100407.16;;;35.53;53.77
74230;BME280;62589;12.568;99.958;2023-08-24T07:50:45;100407.25;;;35.42;53.93
74230;BME280;62589;12.568;99.958;2023-08-24T07:53:11;100405.28;;;35.39;54.01
74230;BME280;62589;12.568;99.958;2023-08-24T07:55:37;100404.91;;;35.37;54.76
74230;BME280;62589;12.568;99.958;2023-08-24T07:58:04;100407.31;;;35.35;55.37
74230;BME280;62589;12.568;99.958;2023-08-24T08:00:30;100410.50;;;35.34;56.10
74230;BME280;62589;12.568;99.958;2023-08-24T08:02:57;100415.31;;;35.33;56.03
74230;BME280;62589;12.568;99.958;2023-08-24T08:05:23;100420.94;;;35.30;56.06
74230;BME280;62589;12.568;99.958;2023-08-24T08:07:50;100410.97;;;35.29;56.05
74230;BME280;62589;12.568;99.958;2023-08-24T08:10:17;100420.94;;;35.30;56.22
74230;BME280;62589;12.568;99.958;2023-08-24T08:12:43;100429.31;;;35.30;56.64
74230;BME280;62589;12.568;99.958;2023-08-24T08:15:10;100415.34;;;35.30;57.10
74230;BME280;62589;12.568;99.958;2023-08-24T08:17:36;100405.78;;;35.31;57.29
74230;BME280;62589;12.568;99.958;2023-08-24T08:20:03;100408.16;;;35.32;56.89
74230;BME280;62589;12.568;99.958;2023-08-24T08:22:30;100409.75;;;35.33;56.49
74230;BME280;62589;12.568;99.958;2023-08-24T08:25:01;100410.50;;;35.34;56.58
74230;BME280;62589;12.568;99.958;2023-08-24T08:27:28;100411.31;;;35.34;56.59
74230;BME280;62589;12.568;99.958;2023-08-24T08:29:55;100404.94;;;35.34;56.70
74230;BME280;62589;12.568;99.958;2023-08-24T08:32:21;100409.75;;;35.33;56.87
74230;BME280;62589;12.568;99.958;2023-08-24T08:34:54;100405.78;;;35.31;56.69
74230;BME280;62589;12.568;99.958;2023-08-24T08:37:25;100405.72;;;35.34;55.88
74230;BME280;62589;12.568;99.958;2023-08-24T08:39:52;100400.13;;;35.34;55.43
74230;BME280;62589;12.568;99.958;2023-08-24T08:42:18;100396.53;;;35.37;55.25
74230;BME280;62589;12.568;99.958;2023-08-24T08:44:46;100395.31;;;35.38;55.20
74230;BME280;62589;12.568;99.958;2023-08-24T08:47:14;100392.91;;;35.40;55.62
74230;BME280;62589;12.568;99.958;2023-08-24T08:49:43;100388.91;;;35.41;55.84
74230;BME280;62589;12.568;99.958;2023-08-24T08:52:10;100389.66;;;35.45;55.93
74230;BME280;62589;12.568;99.958;2023-08-24T08:54:36;100391.25;;;35.46;56.18
74230;BME280;62589;12.568;99.958;2023-08-24T08:57:03;100395.25;;;35.45;56.19
74230;BME280;62589;12.568;99.958;2023-08-24T08:59:30;100389.63;;;35.49;56.33
74230;BME280;62589;12.568;99.958;2023-08-24T09:01:58;100384.84;;;35.50;56.61
74230;BME280;62589;12.568;99.958;2023-08-24T09:04:31;100389.63;;;35.49;56.20
74230;BME280;62589;12.568;99.958;2023-08-24T09:06:57;100390.81;;;35.52;55.11
74230;BME280;62589;12.568;99.958;2023-08-24T09:09:25;100386.44;;;35.51;53.71
74230;BME280;62589;12.568;99.958;2023-08-24T09:11:52;100397.25;;;35.45;52.14
74230;BME280;62589;12.568;99.958;2023-08-24T09:14:19;100389.69;;;35.42;50.95
74230;BME280;62589;12.568;99.958;2023-08-24T09:16:45;100404.91;;;35.37;50.70
74230;BME280;62589;12.568;99.958;2023-08-24T09:19:12;100400.13;;;35.34;50.25
74230;BME280;62589;12.568;99.958;2023-08-24T09:21:39;100404.94;;;35.34;50.29
74230;BME280;62589;12.568;99.958;2023-08-24T09:24:08;100391.34;;;35.36;51.23
74230;BME280;62589;12.568;99.958;2023-08-24T09:26:36;100387.75;;;35.35;52.03
74230;BME280;62589;12.568;99.958;2023-08-24T09:29:11;100376.13;;;35.44;51.04
74230;BME280;62589;12.568;99.958;2023-08-24T09:31:42;100367.91;;;35.30;50.20
74230;BME280;62589;12.568;99.958;2023-08-24T09:34:10;100371.13;;;35.25;49.15
74230;BME280;62589;12.568;99.958;2023-08-24T09:36:38;100366.78;;;35.17;47.48
74230;BME280;62589;12.568;99.958;2023-08-24T09:39:05;100379.97;;;35.16;47.67
74230;BME280;62589;12.568;99.958;2023-08-24T09:41:44;100378.75;;;35.17;47.26
74230;BME280;62589;12.568;99.958;2023-08-24T09:44:11;100382.75;;;35.16;46.87
74230;BME280;62589;12.568;99.958;2023-08-24T09:46:38;100385.53;;;35.16;47.58
74230;BME280;62589;12.568;99.958;2023-08-24T09:49:09;100400.28;;;35.17;47.64
74230;BME280;62589;12.568;99.958;2023-08-24T09:51:36;100392.28;;;35.19;47.43
74230;BME280;62589;12.568;99.958;2023-08-24T09:54:08;100395.53;;;35.13;46.99
74230;BME280;62589;12.568;99.958;2023-08-24T09:56:40;100407.47;;;35.14;47.24
74230;BME280;62589;12.568;99.958;2023-08-24T09:59:17;100403.88;;;35.17;47.66
74230;BME280;62589;12.568;99.958;2023-08-24T10:01:45;100403.88;;;35.17;47.47
74230;BME280;62589;12.568;99.958;2023-08-24T10:04:15;100408.28;;;35.14;47.22
74230;BME280;62589;12.568;99.958;2023-08-24T10:06:42;100409.53;;;35.10;46.86
74230;BME280;62589;12.568;99.958;2023-08-24T10:09:18;100416.69;;;35.11;45.70
74230;BME280;62589;12.568;99.958;2023-08-24T10:11:52;100415.91;;;35.10;46.17
74230;BME280;62589;12.568;99.958;2023-08-24T10:14:36;100419.44;;;35.14;45.74
74230;BME280;62589;12.568;99.958;2023-08-24T10:17:07;100419.84;;;35.13;45.28
74230;BME280;62589;12.568;99.958;2023-08-24T10:19:35;100425.47;;;35.09;45.39
74230;BME280;62589;12.568;99.958;2023-08-24T10:22:03;100434.66;;;35.06;45.29
74230;BME280;62589;12.568;99.958;2023-08-24T10:24:31;100432.28;;;35.05;45.58
74230;BME280;62589;12.568;99.958;2023-08-24T10:27:00;100436.69;;;35.02;45.64
74230;BME280;62589;12.568;99.958;2023-08-24T10:29:28;100436.66;;;35.06;46.00
74230;BME280;62589;12.568;99.958;2023-08-24T10:31:56;100443.44;;;35.05;46.17
74230;BME280;62589;12.568;99.958;2023-08-24T10:34:23;100449.81;;;35.05;46.32
74230;BME280;62589;12.568;99.958;2023-08-24T10:36:50;100453.00;;;35.07;45.82
74230;BME280;62589;12.568;99.958;2023-08-24T10:39:18;100461.00;;;35.05;46.12
74230;BME280;62589;12.568;99.958;2023-08-24T10:41:52;100465.78;;;35.01;45.60
74230;BME280;62589;12.568;99.958;2023-08-24T10:44:24;100474.03;;;35.15;45.10
74230;BME280;62589;12.568;99.958;2023-08-24T10:47:05;100466.59;;;35.02;45.41
74230;BME280;62589;12.568;99.958;2023-08-24T10:49:32;100469.41;;;34.98;45.55
74230;BME280;62589;12.568;99.958;2023-08-24T10:52:16;100459.84;;;34.99;45.88
74230;BME280;62589;12.568;99.958;2023-08-24T10:54:45;100463.44;;;34.96;45.91
74230;BME280;62589;12.568;99.958;2023-08-24T10:57:36;100474.59;;;34.96;45.89
74230;BME280;62589;12.568;99.958;2023-08-24T11:00:09;100477.06;;;34.91;45.62
74230;BME280;62589;12.568;99.958;2023-08-24T11:02:49;100455.56;;;34.88;45.50
74230;BME280;62589;12.568;99.958;2023-08-24T11:05:29;100469.13;;;34.82;45.82
74230;BME280;62589;12.568;99.958;2023-08-24T11:08:01;100481.09;;;34.79;46.00
74230;BME280;62589;12.568;99.958;2023-08-24T11:10:45;100485.88;;;34.75;46.03
74230;BME280;62589;12.568;99.958;2023-08-24T11:13:14;100493.03;;;34.76;45.76
74230;BME280;62589;12.568;99.958;2023-08-24T11:15:46;100497.84;;;34.72;46.08
74230;BME280;62589;12.568;99.958;2023-08-24T11:18:21;100499.47;;;34.69;46.18
74230;BME280;62589;12.568;99.958;2023-08-24T11:20:54;100494.31;;;34.68;46.49
74230;BME280;62589;12.568;99.958;2023-08-24T11:23:23;100489.94;;;34.67;46.11
74230;BME280;62589;12.568;99.958;2023-08-24T11:25:52;100491.13;;;34.66;46.34
74230;BME280;62589;12.568;99.958;2023-08-24T11:28:29;100484.34;;;34.67;46.34
74230;BME280;62589;12.568;99.958;2023-08-24T11:30:57;100491.13;;;34.66;46.61
74230;BME280;62589;12.568;99.958;2023-08-24T11:33:34;100490.72;;;34.64;46.40
74230;BME280;62589;12.568;99.958;2023-08-24T11:36:03;100491.94;;;34.59;46.49
74230;BME280;62589;12.568;99.958;2023-08-24T11:38:40;100498.34;;;34.56;46.47
74230;BME280;62589;12.568;99.958;2023-08-24T11:41:17;100493.97;;;34.55;46.57
74230;BME280;62589;12.568;99.958;2023-08-24T11:43:48;100501.97;;;34.50;46.45
74230;BME280;62589;12.568;99.958;2023-08-24T11:46:18;100501.97;;;34.50;46.30
74230;BME280;62589;12.568;99.958;2023-08-24T11:48:45;100520.69;;;34.49;46.31
74230;BME280;62589;12.568;99.958;2023-08-24T11:51:13;100520.66;;;34.53;46.33
74230;BME280;62589;12.568;99.958;2023-08-24T11:53:41;100526.63;;;34.51;46.17
74230;BME280;62589;12.568;99.958;2023-08-24T11:56:11;100521.50;;;34.50;46.63
74230;BME280;62589;12.568;99.958;2023-08-24T11:58:40;100529.00;;;34.53;46.39
74230;BME280;62589;12.568;99.958;2023-08-24T12:01:08;100534.19;;;34.51;46.18
74230;BME280;62589;12.568;99.958;2023-08-24T12:03:36;100538.22;;;34.50;46.77
74230;BME280;62589;12.568;99.958;2023-08-24T12:06:11;100537.44;;;34.45;46.46
74230;BME280;62589;12.568;99.958;2023-08-24T12:08:41;100539.81;;;34.43;46.23
74230;BME280;62589;12.568;99.958;2023-08-24T12:11:18;100539.44;;;34.41;46.24
74230;BME280;62589;12.568;99.958;2023-08-24T12:13:52;100539.44;;;34.41;46.10
74230;BME280;62589;12.568;99.958;2023-08-24T12:16:20;100533.44;;;34.43;46.05
74230;BME280;62589;12.568;99.958;2023-08-24T12:18:58;100529.06;;;34.42;46.06
74230;BME280;62589;12.568;99.958;2023-08-24T12:21:26;100538.22;;;34.42;46.26
74230;BME280;62589;12.568;99.958;2023-08-24T12:24:00;100542.22;;;34.41;46.05
74230;BME280;62589;12.568;99.958;2023-08-24T12:26:28;100553.75;;;34.43;46.27
74230;BME280;62589;12.568;99.958;2023-08-24T12:29:00;100559.34;;;34.40;46.67
74230;BME280;62589;12.568;99.958;2023-08-24T12:31:29;100562.13;;;34.43;46.88
74230;BME280;62589;12.568;99.958;2023-08-24T12:34:06;100563.72;;;34.41;46.89
74230;BME280;62589;12.568;99.958;2023-08-24T12:36:37;100568.91;;;34.42;46.65
74230;BME280;62589;12.568;99.958;2023-08-24T12:39:05;100568.09;;;34.42;46.90
74230;BME280;62589;12.568;99.958;2023-08-24T12:41:33;100575.28;;;34.43;47.00
74230;BME280;62589;12.568;99.958;2023-08-24T12:44:00;100576.84;;;34.44;46.77
74230;BME280;62589;12.568;99.958;2023-08-24T12:46:32;100586.03;;;34.41;47.09
74230;BME280;62589;12.568;99.958;2023-08-24T12:48:59;100592.41;;;34.41;47.00